createdAt,value
2022-08-03T00:00:58.125Z,76.61
2022-08-03T00:02:01.906Z,76.91
2022-08-03T00:03:06.416Z,77.50
2022-08-03T00:04:11.621Z,77.45
2022-08-03T00:05:13.805Z,77.83
2022-08-03T00:06:16.998Z,78.24
2022-08-03T00:07:19.149Z,78.22
2022-08-03T00:08:22.487Z,78.44
2022-08-03T00:09:25.265Z,78.29
2022-08-03T00:10:39.323Z,78.40
2022-08-03T00:11:41.527Z,78.20
2022-08-03T00:12:44.642Z,78.29
2022-08-03T00:13:46.908Z,78.43
2022-08-03T00:14:51.429Z,78.35
2022-08-03T00:15:54.218Z,78.69
2022-08-03T00:16:57.819Z,78.81
2022-08-03T00:18:00.025Z,78.94
2022-08-03T00:19:03.320Z,79.07
2022-08-03T00:20:06.283Z,79.04
2022-08-03T00:21:10.182Z,79.22
2022-08-03T00:22:12.337Z,79.20
2022-08-03T00:23:15.456Z,79.11
2022-08-03T00:24:17.710Z,79.43
2022-08-03T00:25:20.958Z,79.50
2022-08-03T00:26:23.268Z,79.27
2022-08-03T00:27:26.482Z,79.70
2022-08-03T00:28:28.738Z,79.63
2022-08-03T00:29:31.876Z,79.80
2022-08-03T00:30:36.039Z,79.81
2022-08-03T00:31:44.937Z,79.78
2022-08-03T00:32:55.265Z,79.73
2022-08-03T00:34:03.140Z,79.61
2022-08-03T00:35:09.794Z,79.74
2022-08-03T00:36:15.574Z,79.85
2022-08-03T00:37:17.937Z,79.64
2022-08-03T00:38:21.346Z,79.80
2022-08-03T00:39:23.469Z,79.96
2022-08-03T00:40:26.858Z,79.96
2022-08-03T00:41:29.966Z,80.27
2022-08-03T00:42:32.230Z,80.43
2022-08-03T00:43:35.391Z,80.15
2022-08-03T00:44:39.901Z,80.31
2022-08-03T00:45:44.846Z,80.50
2022-08-03T00:46:46.980Z,80.67
2022-08-03T00:47:50.152Z,80.52
2022-08-03T00:48:53.395Z,80.78
2022-08-03T00:49:56.762Z,80.67
2022-08-03T00:50:59.086Z,80.70
2022-08-03T00:52:09.351Z,80.80
2022-08-03T00:53:12.730Z,80.59
2022-08-03T00:54:16.190Z,80.60
2022-08-03T00:55:18.695Z,81.08
2022-08-03T00:56:21.788Z,80.90
2022-08-03T00:57:23.950Z,80.92
2022-08-03T00:58:27.282Z,80.89
2022-08-03T00:59:30.139Z,80.95
2022-08-03T01:00:36.335Z,80.93
2022-08-03T01:01:39.907Z,81.04
2022-08-03T01:02:43.229Z,81.17
2022-08-03T01:03:45.423Z,81.42
2022-08-03T01:04:48.626Z,81.77
2022-08-03T01:05:56.228Z,81.90
2022-08-03T01:07:10.957Z,81.77
2022-08-03T01:08:22.784Z,81.76
2022-08-03T01:09:38.281Z,81.82
2022-08-03T01:10:46.668Z,82.10
2022-08-03T01:12:00.895Z,82.02
2022-08-03T01:14:01.411Z,82.06
2022-08-03T01:14:47.124Z,82.13
2022-08-03T01:15:58.682Z,81.97
2022-08-03T01:17:08.299Z,82.21
2022-08-03T01:18:17.435Z,82.06
2022-08-03T01:19:36.880Z,81.97
2022-08-03T01:20:44.933Z,81.90
2022-08-03T01:22:10.628Z,81.83
2022-08-03T01:23:43.454Z,82.02
2022-08-03T01:24:55.302Z,82.23
2022-08-03T01:26:26.896Z,82.20
2022-08-03T01:27:39.995Z,82.17
2022-08-03T01:29:05.139Z,81.99
2022-08-03T01:30:10.305Z,82.00
2022-08-03T01:31:19.922Z,81.99
2022-08-03T01:33:00.127Z,81.83
2022-08-03T01:34:01.346Z,81.76
2022-08-03T01:35:06.372Z,81.67
2022-08-03T01:36:14.893Z,81.68
2022-08-03T01:37:22.445Z,81.85
2022-08-03T01:38:28.849Z,81.96
2022-08-03T01:39:33.278Z,81.94
2022-08-03T01:40:40.626Z,81.99
2022-08-03T01:41:48.218Z,82.07
2022-08-03T01:42:52.936Z,82.15
2022-08-03T01:44:29.477Z,82.46
2022-08-03T01:45:23.871Z,82.57
2022-08-03T01:46:26.631Z,82.38
2022-08-03T01:47:31.649Z,82.36
2022-08-03T01:48:36.414Z,82.41
2022-08-03T01:49:41.812Z,82.53
2022-08-03T01:50:46.222Z,82.31
2022-08-03T01:52:02.751Z,82.49
2022-08-03T01:53:09.598Z,82.81
2022-08-03T01:54:14.507Z,82.75
2022-08-03T01:55:19.374Z,82.91
2022-08-03T01:56:25.969Z,82.78
2022-08-03T01:57:30.930Z,82.91
2022-08-03T01:58:37.518Z,82.89
2022-08-03T01:59:42.180Z,82.52
2022-08-03T02:00:48.007Z,82.38
2022-08-03T02:02:15.996Z,82.35
2022-08-03T02:03:16.770Z,82.63
2022-08-03T02:04:20.065Z,82.39
2022-08-03T02:05:24.175Z,82.32
2022-08-03T02:07:01.711Z,82.44
2022-08-03T02:07:53.678Z,82.65
2022-08-03T02:08:57.303Z,82.64
2022-08-03T02:10:02.344Z,82.75
2022-08-03T02:11:07.139Z,82.81
2022-08-03T02:12:11.652Z,82.98
2022-08-03T02:13:17.410Z,82.74
2022-08-03T02:14:21.822Z,83.31
2022-08-03T02:15:25.536Z,83.12
2022-08-03T02:16:32.939Z,83.30
2022-08-03T02:17:39.878Z,83.21
2022-08-03T02:18:43.199Z,83.37
2022-08-03T02:19:47.152Z,83.40
2022-08-03T02:20:50.566Z,83.62
2022-08-03T02:21:56.620Z,83.45
2022-08-03T02:23:04.087Z,83.90
2022-08-03T02:24:08.584Z,83.84
2022-08-03T02:25:12.506Z,84.09
2022-08-03T02:26:18.574Z,84.03
2022-08-03T02:27:24.283Z,84.17
2022-08-03T02:28:33.147Z,84.35
2022-08-03T02:29:40.128Z,84.16
2022-08-03T02:30:51.848Z,84.36
2022-08-03T02:32:00.476Z,84.57
2022-08-03T02:33:05.108Z,84.72
2022-08-03T02:34:14.822Z,84.71
2022-08-03T02:35:20.626Z,84.77
2022-08-03T02:36:28.525Z,84.96
2022-08-03T02:37:39.212Z,84.73
2022-08-03T02:38:49.524Z,84.91
2022-08-03T02:39:56.209Z,85.21
2022-08-03T02:40:59.030Z,85.21
2022-08-03T02:42:03.433Z,85.03
2022-08-03T02:43:09.399Z,85.14
2022-08-03T02:44:14.062Z,85.31
2022-08-03T02:45:19.443Z,85.38
2022-08-03T02:46:25.592Z,85.58
2022-08-03T02:47:53.973Z,85.55
2022-08-03T02:48:57.689Z,85.59
2022-08-03T02:50:02.343Z,85.55
2022-08-03T02:51:06.695Z,85.72
2022-08-03T02:52:13.152Z,85.80
2022-08-03T02:53:20.862Z,85.79
2022-08-03T02:54:25.416Z,85.60
2022-08-03T02:55:30.241Z,85.61
2022-08-03T02:56:34.525Z,85.77
2022-08-03T02:57:38.959Z,85.99
2022-08-03T02:58:43.503Z,85.76
2022-08-03T02:59:47.714Z,85.90
2022-08-03T03:00:51.935Z,85.84
2022-08-03T03:01:56.842Z,85.91
2022-08-03T03:03:06.206Z,85.87
2022-08-03T03:04:10.099Z,85.86
2022-08-03T03:05:54.866Z,85.98
2022-08-03T03:06:40.740Z,85.98
2022-08-03T03:07:52.079Z,85.94
2022-08-03T03:08:59.738Z,86.06
2022-08-03T03:10:03.254Z,86.01
2022-08-03T03:11:08.943Z,85.93
2022-08-03T03:12:13.687Z,85.79
2022-08-03T03:13:17.397Z,85.79
2022-08-03T03:14:33.872Z,85.59
2022-08-03T03:15:39.847Z,85.88
2022-08-03T03:16:43.836Z,85.81
2022-08-03T03:17:48.479Z,85.93
2022-08-03T03:18:54.096Z,86.24
2022-08-03T03:19:57.975Z,86.12
2022-08-03T03:21:01.723Z,86.26
2022-08-03T03:22:07.040Z,85.83
2022-08-03T03:23:10.079Z,86.02
2022-08-03T03:24:13.656Z,85.92
2022-08-03T03:25:16.472Z,86.15
2022-08-03T03:26:20.043Z,86.19
2022-08-03T03:27:22.718Z,85.99
2022-08-03T03:28:26.972Z,86.34
2022-08-03T03:29:29.793Z,86.08
2022-08-03T03:30:43.623Z,86.18
2022-08-03T03:31:46.199Z,86.14
2022-08-03T03:32:52.244Z,86.48
2022-08-03T03:33:58.197Z,86.34
2022-08-03T03:35:01.582Z,86.59
2022-08-03T03:36:05.230Z,86.43
2022-08-03T03:37:08.424Z,86.83
2022-08-03T03:38:10.634Z,86.89
2022-08-03T03:39:15.915Z,87.02
2022-08-03T03:40:19.460Z,87.00
2022-08-03T03:41:22.679Z,86.98
2022-08-03T03:42:25.926Z,86.94
2022-08-03T03:43:29.488Z,86.96
2022-08-03T03:44:32.705Z,87.04
2022-08-03T03:45:35.726Z,87.18
2022-08-03T03:46:39.239Z,87.21
2022-08-03T03:47:41.460Z,87.17
2022-08-03T03:48:45.869Z,87.17
2022-08-03T03:49:50.079Z,87.26
2022-08-03T03:50:57.275Z,86.92
2022-08-03T03:51:59.472Z,87.04
2022-08-03T03:53:02.802Z,86.88
2022-08-03T03:54:06.940Z,86.83
2022-08-03T03:55:10.340Z,86.76
2022-08-03T03:56:12.482Z,86.84
2022-08-03T03:57:15.559Z,86.66
2022-08-03T03:58:17.712Z,86.95
2022-08-03T03:59:20.957Z,86.99
2022-08-03T04:00:24.054Z,86.86
2022-08-03T04:01:27.455Z,86.91
2022-08-03T04:02:29.949Z,86.78
2022-08-03T04:03:33.175Z,86.80
2022-08-03T04:04:54.426Z,86.71
2022-08-03T04:06:17.114Z,86.73
2022-08-03T04:07:38.275Z,86.45
2022-08-03T04:08:59.078Z,86.61
2022-08-03T04:10:20.250Z,86.30
2022-08-03T04:11:29.339Z,86.23
2022-08-03T04:12:36.625Z,86.22
2022-08-03T04:13:42.099Z,86.22
2022-08-03T04:14:46.268Z,86.35
2022-08-03T04:15:51.738Z,86.09
2022-08-03T04:16:57.997Z,86.43
2022-08-03T04:18:02.739Z,86.18
2022-08-03T04:19:10.522Z,85.91
2022-08-03T04:20:13.928Z,86.10
2022-08-03T04:21:23.520Z,85.90
2022-08-03T04:22:29.109Z,85.82
2022-08-03T04:23:34.347Z,86.13
2022-08-03T04:24:41.620Z,86.16
2022-08-03T04:25:45.229Z,86.41
2022-08-03T04:26:52.744Z,86.40
2022-08-03T04:28:08.131Z,86.21
2022-08-03T04:29:24.586Z,86.31
2022-08-03T04:30:29.375Z,86.60
2022-08-03T04:31:31.929Z,86.63
2022-08-03T04:32:37.503Z,86.58
2022-08-03T04:33:41.416Z,86.47
2022-08-03T04:34:44.980Z,86.37
2022-08-03T04:35:58.673Z,86.23
2022-08-03T04:37:13.591Z,85.99
2022-08-03T04:38:19.429Z,86.17
2022-08-03T04:39:26.625Z,86.09
2022-08-03T04:40:33.645Z,85.83
2022-08-03T04:42:07.232Z,85.73
2022-08-03T04:43:00.865Z,85.54
2022-08-03T04:44:06.991Z,85.44
2022-08-03T04:45:13.040Z,85.96
2022-08-03T04:46:16.724Z,85.66
2022-08-03T04:47:19.805Z,85.66
2022-08-03T04:48:23.463Z,85.62
2022-08-03T04:49:26.680Z,85.58
2022-08-03T04:50:30.269Z,85.39
2022-08-03T04:51:42.785Z,85.45
2022-08-03T04:52:47.473Z,85.30
2022-08-03T04:53:49.850Z,85.17
2022-08-03T04:54:53.099Z,84.85
2022-08-03T04:55:55.248Z,84.84
2022-08-03T04:56:58.378Z,84.64
2022-08-03T04:58:01.413Z,84.51
2022-08-03T04:59:04.606Z,84.40
2022-08-03T05:00:08.986Z,84.45
2022-08-03T05:01:11.150Z,84.44
2022-08-03T05:02:14.537Z,84.45
2022-08-03T05:03:20.415Z,84.12
2022-08-03T05:04:27.548Z,84.00
2022-08-03T05:05:34.646Z,83.89
2022-08-03T05:06:55.133Z,83.63
2022-08-03T05:08:00.803Z,83.35
2022-08-03T05:09:07.355Z,83.32
2022-08-03T05:10:15.822Z,82.98
2022-08-03T05:11:19.892Z,82.82
2022-08-03T05:12:23.921Z,82.63
2022-08-03T05:13:26.124Z,82.32
2022-08-03T05:14:29.288Z,82.04
2022-08-03T05:15:31.376Z,81.85
2022-08-03T05:16:34.569Z,81.80
2022-08-03T05:17:36.948Z,81.53
2022-08-03T05:18:40.128Z,81.38
2022-08-03T05:19:42.271Z,81.30
2022-08-03T05:20:45.426Z,81.05
2022-08-03T05:21:52.782Z,80.89
2022-08-03T05:22:56.152Z,80.92
2022-08-03T05:23:59.792Z,80.60
2022-08-03T05:25:03.194Z,80.57
2022-08-03T05:26:05.366Z,80.57
2022-08-03T05:27:08.549Z,80.30
2022-08-03T05:28:10.926Z,79.94
2022-08-03T05:29:14.110Z,79.78
2022-08-03T05:30:31.109Z,79.54
2022-08-03T05:31:37.564Z,79.56
2022-08-03T05:32:39.730Z,79.26
2022-08-03T05:33:44.820Z,79.30
2022-08-03T05:34:46.992Z,79.28
2022-08-03T05:35:57.444Z,79.23
2022-08-03T05:37:07.332Z,79.02
2022-08-03T05:38:11.147Z,78.61
2022-08-03T05:39:16.941Z,78.49
2022-08-03T05:40:20.062Z,78.07
2022-08-03T05:41:24.143Z,77.88
2022-08-03T05:42:39.504Z,77.86
2022-08-03T05:43:42.632Z,77.73
2022-08-03T05:44:45.857Z,77.44
2022-08-03T05:45:48.110Z,77.12
2022-08-03T05:47:11.588Z,77.09
2022-08-03T05:48:13.798Z,76.73
2022-08-03T05:49:17.042Z,76.54
2022-08-03T05:50:20.641Z,76.42
2022-08-03T05:51:23.853Z,76.27
2022-08-03T05:52:26.147Z,76.09
2022-08-03T05:53:29.610Z,75.96
2022-08-03T05:54:56.604Z,75.72
2022-08-03T05:56:02.108Z,75.52
2022-08-03T05:57:16.576Z,75.26
2022-08-03T05:58:18.712Z,75.03
2022-08-03T05:59:37.596Z,74.70
2022-08-03T06:00:41.486Z,74.54
2022-08-03T06:01:43.686Z,74.46
2022-08-03T06:02:46.871Z,74.32
2022-08-03T06:03:49.447Z,73.94
2022-08-03T06:04:52.604Z,73.99
2022-08-03T06:06:00.216Z,73.40
2022-08-03T06:07:03.848Z,73.21
2022-08-03T06:08:06.228Z,73.37
2022-08-03T06:09:10.541Z,73.24
2022-08-03T06:10:35.573Z,73.00
2022-08-03T06:11:37.298Z,72.94
2022-08-03T06:12:41.444Z,72.66
2022-08-03T06:13:45.252Z,72.67
2022-08-03T06:14:47.400Z,72.49
2022-08-03T06:15:50.561Z,72.30
2022-08-03T06:16:52.744Z,72.33
2022-08-03T06:18:01.474Z,72.29
2022-08-03T06:19:04.132Z,72.23
2022-08-03T06:20:08.105Z,72.21
2022-08-03T06:21:15.368Z,72.16
2022-08-03T06:22:19.615Z,71.67
2022-08-03T06:23:37.853Z,71.26
2022-08-03T06:24:53.278Z,70.98
2022-08-03T06:25:57.402Z,70.80
2022-08-03T06:27:01.588Z,70.71
2022-08-03T06:28:05.259Z,70.36
2022-08-03T06:29:08.611Z,70.38
2022-08-03T06:30:14.574Z,70.02
2022-08-03T06:31:19.427Z,70.13
2022-08-03T06:32:22.877Z,69.78
2022-08-03T06:34:30.228Z,69.63
2022-08-03T06:34:50.010Z,69.41
2022-08-03T06:35:52.300Z,69.29
2022-08-03T06:37:01.807Z,69.34
2022-08-03T06:38:04.422Z,69.12
2022-08-03T06:39:08.311Z,68.92
2022-08-03T06:40:13.814Z,68.36
2022-08-03T06:41:18.862Z,68.61
2022-08-03T06:42:21.086Z,68.45
2022-08-03T06:43:25.920Z,68.52
2022-08-03T06:44:28.028Z,68.18
2022-08-03T06:45:31.741Z,67.68
2022-08-03T06:46:34.643Z,67.57
2022-08-03T06:47:38.005Z,67.15
2022-08-03T06:48:40.240Z,66.76
2022-08-03T06:49:43.835Z,66.68
2022-08-03T06:51:06.921Z,66.79
2022-08-03T06:52:09.154Z,66.71
2022-08-03T06:53:19.724Z,66.13
2022-08-03T06:54:24.529Z,66.07
2022-08-03T06:55:27.827Z,65.81
2022-08-03T06:56:31.425Z,65.59
2022-08-03T06:57:34.581Z,65.55
2022-08-03T06:58:36.694Z,65.13
2022-08-03T07:00:09.451Z,64.78
2022-08-03T07:01:02.452Z,64.39
2022-08-03T07:02:06.148Z,64.33
2022-08-03T07:03:09.796Z,64.44
2022-08-03T07:04:13.012Z,64.20
2022-08-03T07:05:15.243Z,63.65
2022-08-03T07:06:18.510Z,63.23
2022-08-03T07:07:21.760Z,63.48
2022-08-03T07:08:33.431Z,62.94
2022-08-03T07:09:36.718Z,63.10
2022-08-03T07:10:39.940Z,63.25
2022-08-03T07:11:43.505Z,63.14
2022-08-03T07:12:56.076Z,62.39
2022-08-03T07:13:58.884Z,62.69
2022-08-03T07:15:03.892Z,62.29
2022-08-03T07:16:07.084Z,62.08
2022-08-03T07:17:11.536Z,62.27
2022-08-03T07:18:14.255Z,62.08
2022-08-03T07:19:17.543Z,61.42
2022-08-03T07:20:19.752Z,61.30
2022-08-03T07:21:22.930Z,61.05
2022-08-03T07:22:25.107Z,60.46
2022-08-03T07:23:28.637Z,60.29
2022-08-03T07:24:31.833Z,60.51
2022-08-03T07:25:34.012Z,59.95
2022-08-03T07:26:37.225Z,60.37
2022-08-03T07:27:43.652Z,60.21
2022-08-03T07:28:46.828Z,60.23
2022-08-03T07:29:48.996Z,60.41
2022-08-03T07:30:52.281Z,60.29
2022-08-03T07:31:54.494Z,60.17
2022-08-03T07:32:57.745Z,60.15
2022-08-03T07:33:59.906Z,60.26
2022-08-03T07:35:03.498Z,60.57
2022-08-03T07:36:12.041Z,59.96
2022-08-03T07:37:14.171Z,59.63
2022-08-03T07:38:20.917Z,59.85
2022-08-03T07:39:23.633Z,59.30
2022-08-03T07:40:30.761Z,59.27
2022-08-03T07:41:34.089Z,59.29
2022-08-03T07:42:37.247Z,59.25
2022-08-03T07:43:41.814Z,59.43
2022-08-03T07:44:44.013Z,59.48
2022-08-03T07:45:47.184Z,59.06
2022-08-03T07:46:50.754Z,59.39
2022-08-03T07:47:55.179Z,59.21
2022-08-03T07:48:57.409Z,59.13
2022-08-03T07:50:00.559Z,59.18
2022-08-03T07:51:05.701Z,59.05
2022-08-03T07:52:26.503Z,58.91
2022-08-03T07:53:31.790Z,59.06
2022-08-03T07:54:39.959Z,58.85
2022-08-03T07:55:43.161Z,58.52
2022-08-03T07:56:45.281Z,58.49
2022-08-03T07:57:48.891Z,58.46
2022-08-03T07:58:53.740Z,57.97
2022-08-03T08:00:01.350Z,58.27
2022-08-03T08:01:15.332Z,58.18
2022-08-03T08:02:17.757Z,57.68
2022-08-03T08:03:21.961Z,58.42
2022-08-03T08:04:24.179Z,58.14
2022-08-03T08:05:28.022Z,58.27
2022-08-03T08:06:32.670Z,58.88
2022-08-03T08:07:34.820Z,58.62
2022-08-03T08:08:39.681Z,58.16
2022-08-03T08:09:41.931Z,57.80
2022-08-03T08:10:56.628Z,57.60
2022-08-03T08:12:01.811Z,57.36
2022-08-03T08:13:05.776Z,57.35
2022-08-03T08:14:09.837Z,57.66
2022-08-03T08:15:13.097Z,57.12
2022-08-03T08:16:15.314Z,57.20
2022-08-03T08:17:19.850Z,57.03
2022-08-03T08:18:24.042Z,56.97
2022-08-03T08:19:26.197Z,57.20
2022-08-03T08:20:37.228Z,57.32
2022-08-03T08:22:01.785Z,56.81
2022-08-03T08:23:06.956Z,57.11
2022-08-03T08:24:27.034Z,56.86
2022-08-03T08:25:31.419Z,57.04
2022-08-03T08:26:33.837Z,56.39
2022-08-03T08:28:22.235Z,56.75
2022-08-03T08:29:06.730Z,56.86
2022-08-03T08:30:15.997Z,56.77
2022-08-03T08:31:21.943Z,55.96
2022-08-03T08:32:24.167Z,55.93
2022-08-03T08:33:37.409Z,55.40
2022-08-03T08:34:51.051Z,55.52
2022-08-03T08:35:53.559Z,55.47
2022-08-03T08:36:56.803Z,55.71
2022-08-03T08:38:00.255Z,55.42
2022-08-03T08:39:09.192Z,55.64
2022-08-03T08:40:13.489Z,55.33
2022-08-03T08:41:17.305Z,55.65
2022-08-03T08:42:19.602Z,55.90
2022-08-03T08:43:22.864Z,55.98
2022-08-03T08:44:25.043Z,56.04
2022-08-03T08:45:29.929Z,55.54
2022-08-03T08:46:33.169Z,55.53
2022-08-03T08:47:50.933Z,55.71
2022-08-03T08:48:55.809Z,55.58
2022-08-03T08:50:09.763Z,55.40
2022-08-03T08:51:14.007Z,55.53
2022-08-03T08:52:25.210Z,54.67
2022-08-03T08:53:37.012Z,55.00
2022-08-03T08:54:41.815Z,55.16
2022-08-03T08:55:58.077Z,54.98
2022-08-03T08:57:16.433Z,55.40
2022-08-03T08:58:30.970Z,55.55
2022-08-03T08:59:47.910Z,55.22
2022-08-03T09:00:53.158Z,54.87
2022-08-03T09:01:58.049Z,55.18
2022-08-03T09:03:02.496Z,55.18
2022-08-03T09:04:09.484Z,54.53
2022-08-03T09:05:13.155Z,54.49
2022-08-03T09:06:16.972Z,54.88
2022-08-03T09:07:20.637Z,54.79
2022-08-03T09:08:24.405Z,54.87
2022-08-03T09:10:00.367Z,54.28
2022-08-03T09:10:50.010Z,54.28
2022-08-03T09:11:57.760Z,54.35
2022-08-03T09:13:12.131Z,54.06
2022-08-03T09:14:34.180Z,54.17
2022-08-03T09:15:38.257Z,54.03
2022-08-03T09:16:56.318Z,54.53
2022-08-03T09:18:00.737Z,54.32
2022-08-03T09:19:13.914Z,54.86
2022-08-03T09:20:16.495Z,54.39
2022-08-03T09:21:33.544Z,54.22
2022-08-03T09:22:36.513Z,54.46
2022-08-03T09:24:01.635Z,53.40
2022-08-03T09:25:23.974Z,54.14
2022-08-03T09:26:30.019Z,53.85
2022-08-03T09:27:42.688Z,53.55
2022-08-03T09:28:57.939Z,53.71
2022-08-03T09:30:33.335Z,53.49
2022-08-03T09:31:39.606Z,53.99
2022-08-03T09:32:47.602Z,53.44
2022-08-03T09:33:50.845Z,53.83
2022-08-03T09:34:57.896Z,53.21
2022-08-03T09:36:01.513Z,53.47
2022-08-03T09:37:14.946Z,52.64
2022-08-03T09:38:19.902Z,52.84
2022-08-03T09:39:41.446Z,52.49
2022-08-03T09:40:46.701Z,52.89
2022-08-03T09:42:05.321Z,52.71
2022-08-03T09:43:08.315Z,52.72
2022-08-03T09:44:24.119Z,52.70
2022-08-03T09:45:30.082Z,52.85
2022-08-03T09:46:33.318Z,52.72
2022-08-03T09:47:37.361Z,52.28
2022-08-03T09:48:48.715Z,51.83
2022-08-03T09:49:58.929Z,51.42
2022-08-03T09:51:13.828Z,51.71
2022-08-03T09:52:38.859Z,51.26
2022-08-03T09:53:58.854Z,51.09
2022-08-03T09:55:04.431Z,50.92
2022-08-03T09:56:39.720Z,50.67
2022-08-03T09:57:46.299Z,50.52
2022-08-03T09:58:48.762Z,50.67
2022-08-03T10:00:03.114Z,50.88
2022-08-03T10:01:14.624Z,51.19
2022-08-03T10:02:28.940Z,50.58
2022-08-03T10:03:32.768Z,50.70
2022-08-03T10:04:48.505Z,50.36
2022-08-03T10:05:52.268Z,50.86
2022-08-03T10:07:05.392Z,50.58
2022-08-03T10:08:15.392Z,50.57
2022-08-03T10:09:18.601Z,50.72
2022-08-03T10:10:28.871Z,50.35
2022-08-03T10:11:40.886Z,50.58
2022-08-03T10:12:48.132Z,50.78
2022-08-03T10:13:50.408Z,50.51
2022-08-03T10:15:01.277Z,50.48
2022-08-03T10:16:22.328Z,50.84
2022-08-03T10:17:27.722Z,51.07
2022-08-03T10:18:30.054Z,50.90
2022-08-03T10:19:34.006Z,50.32
2022-08-03T10:20:45.137Z,50.17
2022-08-03T10:21:54.691Z,49.86
2022-08-03T10:22:59.486Z,49.45
2022-08-03T10:24:04.325Z,49.81
2022-08-03T10:25:10.048Z,49.83
2022-08-03T10:26:16.411Z,49.71
2022-08-03T10:27:21.367Z,49.89
2022-08-03T10:28:24.710Z,49.54
2022-08-03T10:29:30.734Z,49.54
2022-08-03T10:30:33.309Z,49.55
2022-08-03T10:31:57.604Z,49.44
2022-08-03T10:33:10.878Z,49.37
2022-08-03T10:34:35.600Z,49.12
2022-08-03T10:35:41.524Z,48.91
2022-08-03T10:36:46.657Z,48.43
2022-08-03T10:37:56.750Z,48.39
2022-08-03T10:39:01.983Z,48.53
2022-08-03T10:40:08.326Z,48.27
2022-08-03T10:41:11.627Z,48.14
2022-08-03T10:42:15.273Z,48.22
2022-08-03T10:43:21.845Z,48.52
2022-08-03T10:44:27.535Z,48.37
2022-08-03T10:45:34.354Z,49.07
2022-08-03T10:46:44.541Z,49.54
2022-08-03T10:47:49.481Z,49.27
2022-08-03T10:48:52.858Z,49.19
2022-08-03T10:49:56.294Z,48.96
2022-08-03T10:51:01.166Z,48.79
2022-08-03T10:52:13.895Z,49.37
2022-08-03T10:53:36.851Z,48.99
2022-08-03T10:54:58.671Z,49.21
2022-08-03T10:56:21.633Z,49.12
2022-08-03T10:57:48.756Z,49.62
2022-08-03T10:58:57.594Z,49.36
2022-08-03T11:00:00.658Z,49.56
2022-08-03T11:01:04.865Z,49.73
2022-08-03T11:02:09.955Z,49.42
2022-08-03T11:03:15.143Z,49.88
2022-08-03T11:04:19.864Z,49.60
2022-08-03T11:05:30.628Z,49.35
2022-08-03T11:06:37.632Z,49.96
2022-08-03T11:07:39.980Z,49.31
2022-08-03T11:08:43.240Z,49.61
2022-08-03T11:09:48.535Z,49.35
2022-08-03T11:10:53.216Z,49.04
2022-08-03T11:11:56.739Z,48.81
2022-08-03T11:13:07.381Z,48.48
2022-08-03T11:14:13.464Z,48.00
2022-08-03T11:15:32.921Z,46.37
2022-08-03T11:16:38.478Z,46.49
2022-08-03T11:18:11.515Z,46.35
2022-08-03T11:19:16.711Z,46.57
2022-08-03T11:20:48.083Z,46.24
2022-08-03T11:21:59.899Z,47.86
2022-08-03T11:23:02.998Z,47.04
2022-08-03T11:24:06.953Z,46.72
2022-08-03T11:25:53.060Z,46.52
2022-08-03T11:26:33.782Z,46.77
2022-08-03T11:27:37.704Z,46.81
2022-08-03T11:28:43.023Z,46.42
2022-08-03T11:29:56.762Z,45.35
2022-08-03T11:31:57.542Z,45.27
2022-08-03T11:33:00.523Z,45.12
2022-08-03T11:34:07.431Z,44.86
2022-08-03T11:35:11.510Z,44.92
2022-08-03T11:36:16.580Z,45.02
2022-08-03T11:37:37.652Z,45.46
2022-08-03T11:39:16.750Z,45.03
2022-08-03T11:40:34.725Z,44.78
2022-08-03T11:41:44.894Z,44.46
2022-08-03T11:42:48.979Z,45.02
2022-08-03T11:43:52.141Z,45.00
2022-08-03T11:44:56.072Z,45.19
2022-08-03T11:46:00.525Z,44.92
2022-08-03T11:47:02.889Z,44.87
2022-08-03T11:48:16.582Z,45.29
2022-08-03T11:49:23.675Z,44.88
2022-08-03T11:50:27.017Z,44.73
2022-08-03T11:51:32.209Z,44.51
2022-08-03T11:52:38.348Z,44.19
2022-08-03T11:53:42.085Z,44.30
2022-08-03T11:54:45.416Z,44.20
2022-08-03T11:55:49.939Z,43.72
2022-08-03T11:56:52.277Z,43.40
2022-08-03T11:59:11.061Z,43.45
2022-08-03T11:59:33.803Z,43.69
2022-08-03T12:00:35.946Z,43.58
2022-08-03T12:01:40.027Z,43.55
2022-08-03T12:02:54.902Z,43.09
2022-08-03T12:04:05.301Z,43.59
2022-08-03T12:05:07.970Z,43.42
2022-08-03T12:06:12.669Z,43.23
2022-08-03T12:07:24.995Z,43.32
2022-08-03T12:08:39.954Z,43.25
2022-08-03T12:09:43.791Z,43.41
2022-08-03T12:10:51.460Z,43.67
2022-08-03T12:12:00.582Z,44.09
2022-08-03T12:14:44.423Z,44.38
2022-08-03T12:14:48.292Z,44.10
2022-08-03T12:15:56.064Z,43.94
2022-08-03T12:16:58.264Z,43.34
2022-08-03T12:18:01.924Z,43.78
2022-08-03T12:19:08.215Z,43.94
2022-08-03T12:20:21.026Z,44.18
2022-08-03T12:21:57.350Z,43.00
2022-08-03T12:23:04.587Z,43.00
2022-08-03T12:24:09.747Z,42.62
2022-08-03T12:25:26.989Z,42.13
2022-08-03T12:26:58.323Z,41.93
2022-08-03T12:28:36.562Z,41.31
2022-08-03T12:29:35.310Z,41.72
2022-08-03T12:30:38.111Z,41.61
2022-08-03T12:31:41.263Z,41.74
2022-08-03T12:32:44.100Z,41.08
2022-08-03T12:33:59.352Z,40.97
2022-08-03T12:35:04.597Z,40.76
2022-08-03T12:36:09.464Z,40.77
2022-08-03T12:37:20.303Z,41.03
2022-08-03T12:38:26.439Z,41.45
2022-08-03T12:39:31.388Z,41.20
2022-08-03T12:40:33.866Z,41.63
2022-08-03T12:41:39.069Z,41.85
2022-08-03T12:42:41.274Z,41.35
2022-08-03T12:43:49.359Z,40.47
2022-08-03T12:44:51.511Z,40.56
2022-08-03T12:46:13.719Z,40.25
2022-08-03T12:47:17.166Z,40.27
2022-08-03T12:48:19.497Z,40.10
2022-08-03T12:49:27.148Z,40.15
2022-08-03T12:50:31.780Z,39.93
2022-08-03T12:51:37.444Z,39.85
2022-08-03T12:52:44.059Z,39.64
2022-08-03T12:53:53.553Z,39.25
2022-08-03T12:55:00.601Z,38.92
2022-08-03T12:56:05.680Z,39.15
2022-08-03T12:57:11.148Z,39.55
2022-08-03T12:58:34.401Z,39.15
2022-08-03T12:59:42.526Z,39.29
2022-08-03T13:00:55.740Z,39.48
2022-08-03T13:01:59.635Z,39.27
2022-08-03T13:03:38.636Z,39.58
2022-08-03T13:04:30.805Z,39.54
2022-08-03T13:05:44.958Z,39.39
2022-08-03T13:07:02.460Z,39.37
2022-08-03T13:08:18.558Z,39.04
2022-08-03T13:09:20.774Z,39.01
2022-08-03T13:10:33.627Z,38.55
2022-08-03T13:11:57.247Z,38.88
2022-08-03T13:13:03.026Z,38.70
2022-08-03T13:14:05.238Z,38.51
2022-08-03T13:15:08.994Z,38.39
2022-08-03T13:16:14.580Z,38.04
2022-08-03T13:17:20.920Z,38.00
2022-08-03T13:18:23.368Z,38.08
2022-08-03T13:19:26.724Z,38.47
2022-08-03T13:20:29.925Z,38.29
2022-08-03T13:21:33.132Z,38.67
2022-08-03T13:22:35.632Z,38.48
2022-08-03T13:23:38.832Z,38.50
2022-08-03T13:24:41.615Z,38.69
2022-08-03T13:25:55.758Z,38.39
2022-08-03T13:26:59.192Z,38.09
2022-08-03T13:28:06.478Z,37.67
2022-08-03T13:29:09.578Z,37.27
2022-08-03T13:30:13.459Z,37.15
2022-08-03T13:31:21.123Z,36.82
2022-08-03T13:32:23.812Z,36.90
2022-08-03T13:33:28.261Z,36.02
2022-08-03T13:34:30.435Z,36.14
2022-08-03T13:35:33.606Z,36.36
2022-08-03T13:36:59.186Z,36.35
2022-08-03T13:37:59.077Z,35.99
2022-08-03T13:39:01.315Z,35.57
2022-08-03T13:40:08.277Z,35.40
2022-08-03T13:41:15.599Z,34.67
2022-08-03T13:42:19.455Z,34.57
2022-08-03T13:43:22.335Z,34.05
2022-08-03T13:44:30.950Z,34.29
2022-08-03T13:45:34.093Z,33.82
2022-08-03T13:46:36.264Z,33.79
2022-08-03T13:47:39.379Z,34.01
2022-08-03T13:48:41.570Z,34.22
2022-08-03T13:49:44.709Z,34.24
2022-08-03T13:51:11.545Z,34.10
2022-08-03T13:52:23.947Z,34.13
2022-08-03T13:53:27.090Z,34.00
2022-08-03T13:54:30.126Z,34.22
2022-08-03T13:55:33.649Z,33.97
2022-08-03T13:56:38.167Z,34.15
2022-08-03T13:58:03.346Z,34.61
2022-08-03T13:59:03.434Z,35.10
2022-08-03T14:00:08.078Z,35.14
2022-08-03T14:01:10.336Z,35.32
2022-08-03T14:02:13.529Z,35.34
2022-08-03T14:03:16.745Z,35.72
2022-08-03T14:04:22.282Z,35.67
2022-08-03T14:05:25.801Z,35.42
2022-08-03T14:06:28.893Z,35.40
2022-08-03T14:07:31.047Z,35.34
2022-08-03T14:08:34.242Z,35.55
2022-08-03T14:09:38.518Z,35.45
2022-08-03T14:10:43.608Z,35.12
2022-08-03T14:12:07.633Z,35.12
2022-08-03T14:13:12.947Z,34.98
2022-08-03T14:14:20.004Z,34.40
2022-08-03T14:15:22.706Z,34.16
2022-08-03T14:16:25.784Z,33.88
2022-08-03T14:17:42.191Z,33.57
2022-08-03T14:18:50.663Z,33.08
2022-08-03T14:19:54.246Z,33.12
2022-08-03T14:21:01.941Z,32.61
2022-08-03T14:22:08.056Z,32.94
2022-08-03T14:23:11.346Z,33.11
2022-08-03T14:24:14.460Z,32.58
2022-08-03T14:25:16.800Z,32.13
2022-08-03T14:26:21.044Z,32.23
2022-08-03T14:27:24.654Z,31.54